KBIX

Keesler AFB Airport

Biloxi, Mississippi, USA
TAF AMD KBIX 231252Z 2312/2416 VRB06KT 9999 VCTS FEW120 BKN140CB QNH2980INS TEMPO 2312/2315 27010G15KT 4800 -TSRA BKN020CB BECMG 2314/2315 VRB06KT 9999 NSW FEW050 FEW120 QNH2977INS BECMG 2319/2320 27009KT 8000 -SHRA BKN050 QNH2977INS TEMPO 2320/2324 VRB25G40KT 4800 -TSRA BKN040CB BECMG 2403/2404 02006KT 9999 NSW FEW040 SCT055 QNH2982INS TX34/2321Z TN23/2410Z
Issued Valid From Valid To
Jul-23 @ 12:52 UTC
(52 minutes ago)
Jul-23 @ 12:00 UTC
(2 hours ago)
Jul-24 @ 16:00 UTC
(-1 days ago)
Jul-23 @ 12:00 to Jul-23 @ 14:00
TAF AMD KBIX 231252Z 2312/2416 VRB06KT 9999 VCTS FEW120 BKN140CB QNH2980INS
Wind Visibility Clouds Conditions Readings
Variable at 6 knots Greater than 6 miles
  • Few at 12,000' AGL
  • Broken at 14,000' AGL
  • Area Thunderstorm
Altimeter 29.79" Hg
Pressure 1009 hPa
Temporary Jul-23 @ 12:00 to Jul-23 @ 15:00
TEMPO 2312/2315 27010G15KT 4800 -TSRA BKN020CB
Wind Visibility Clouds Conditions
270° at 10 knots
 Gusting to 15 knots
21/98 miles
  • Broken at 2,000' AGL
  • Light Thunderstorm
  • Light Rain
Becoming Jul-23 @ 14:00 to Jul-23 @ 19:00
BECMG 2314/2315 VRB06KT 9999 NSW FEW050 FEW120 QNH2977INS
Wind Visibility Clouds Conditions Readings
Variable at 6 knots Greater than 6 miles
  • Few at 5,000' AGL
  • Few at 12,000' AGL
Altimeter 29.76" Hg
Pressure 1008 hPa
Becoming Jul-23 @ 19:00 to Jul-24 @ 03:00
BECMG 2319/2320 27009KT 8000 -SHRA BKN050 QNH2977INS
Wind Visibility Clouds Conditions Readings
270° at 9 knots 41/97 miles
  • Broken at 5,000' AGL
  • Light Rain
Altimeter 29.76" Hg
Pressure 1008 hPa
Temporary Jul-23 @ 20:00 to Jul-24 @ 00:00
TEMPO 2320/2324 VRB25G40KT 4800 -TSRA BKN040CB
Wind Visibility Clouds Conditions
Variable at 25 knots
 Gusting to 40 knots
21/98 miles
  • Broken at 4,000' AGL
  • Light Thunderstorm
  • Light Rain
Becoming Jul-24 @ 03:00 to Jul-24 @ 16:00
BECMG 2403/2404 02006KT 9999 NSW FEW040 SCT055 QNH2982INS TX34/2321Z TN23/2410Z
Wind Visibility Clouds Conditions Readings
20° at 6 knots Greater than 6 miles
  • Few at 4,000' AGL
  • Scattered at 5,500' AGL
Altimeter 29.82" Hg
Pressure 1010 hPa
TAF AMD KBIX 231252Z 2312/2416 VRB06KT 9999 VCTS FEW120 BKN140CB QNH2980INS TEMPO 2312/2315 27010G15KT 4800 -TSRA BKN020CB BECMG 2314/2315 VRB06KT 9999 NSW FEW050 FEW120 QNH2977INS BECMG 2319/2320 27009KT 8000 -SHRA BKN050 QNH2977INS TEMPO 2320/2324 VRB25G40KT 4800 -TSRA BKN040CB BECMG 2403/2404 02006KT 9999 NSW FEW040 SCT055 QNH2982INS TX34/2321Z TN23/2410Z
Issued Jul-23 @ 12:52 UTC
(52 minutes ago)
Valid From Jul-23 @ 12:00 UTC
(2 hours ago)
Valid To Jul-24 @ 16:00 UTC
(-1 days ago)
Jul-23 @ 12:00 - Jul-23 @ 14:00
Wind Visibility
Variable at 6 knots Greater than 6 miles
Clouds
  • Few at 12,000' AGL
  • Broken at 14,000' AGL
Conditions
  • Area Thunderstorm
Temporary Jul-23 @ 12:00 - Jul-23 @ 15:00
Wind Visibility
270° at 10 knots
 Gusting to 15 knots
21/98 miles
Clouds
  • Broken at 2,000' AGL
Conditions
  • Light Thunderstorm
  • Light Rain
Becoming Jul-23 @ 14:00 - Jul-23 @ 19:00
Wind Visibility
Variable at 6 knots Greater than 6 miles
Clouds
  • Few at 5,000' AGL
  • Few at 12,000' AGL
Conditions
Becoming Jul-23 @ 19:00 - Jul-24 @ 03:00
Wind Visibility
270° at 9 knots 41/97 miles
Clouds
  • Broken at 5,000' AGL
Conditions
  • Light Rain
Temporary Jul-23 @ 20:00 - Jul-24 @ 00:00
Wind Visibility
Variable at 25 knots
 Gusting to 40 knots
21/98 miles
Clouds
  • Broken at 4,000' AGL
Conditions
  • Light Thunderstorm
  • Light Rain
Becoming Jul-24 @ 03:00 - Jul-24 @ 16:00
Wind Visibility
20° at 6 knots Greater than 6 miles
Clouds
  • Few at 4,000' AGL
  • Scattered at 5,500' AGL
Conditions